sensor_id;sensor_type;location;lat;lon;timestamp;temperature;humidity
80230;DHT22;69540;42.136;24.742;2023-04-24T00:00:09;22.50;31.90
80230;DHT22;69540;42.136;24.742;2023-04-24T00:02:35;22.50;31.90
80230;DHT22;69540;42.136;24.742;2023-04-24T00:05:07;22.50;31.90
80230;DHT22;69540;42.136;24.742;2023-04-24T00:07:33;22.50;31.90
80230;DHT22;69540;42.136;24.742;2023-04-24T00:09:59;22.50;31.90
80230;DHT22;69540;42.136;24.742;2023-04-24T00:12:26;22.50;31.90
80230;DHT22;69540;42.136;24.742;2023-04-24T00:14:52;22.40;31.90
80230;DHT22;69540;42.136;24.742;2023-04-24T00:17:21;22.40;31.90
80230;DHT22;69540;42.136;24.742;2023-04-24T00:19:49;22.40;31.90
80230;DHT22;69540;42.136;24.742;2023-04-24T00:22:27;22.50;31.90
80230;DHT22;69540;42.136;24.742;2023-04-24T00:24:53;22.50;31.90
80230;DHT22;69540;42.136;24.742;2023-04-24T00:27:19;22.40;31.80
80230;DHT22;69540;42.136;24.742;2023-04-24T00:29:44;22.50;31.90
80230;DHT22;69540;42.136;24.742;2023-04-24T00:32:13;22.40;31.90
80230;DHT22;69540;42.136;24.742;2023-04-24T00:34:39;22.50;31.90
80230;DHT22;69540;42.136;24.742;2023-04-24T00:37:05;22.40;31.90
80230;DHT22;69540;42.136;24.742;2023-04-24T00:39:31;22.40;31.90
80230;DHT22;69540;42.136;24.742;2023-04-24T00:41:57;22.40;31.90
80230;DHT22;69540;42.136;24.742;2023-04-24T00:44:23;22.40;31.90
80230;DHT22;69540;42.136;24.742;2023-04-24T00:46:49;22.40;31.90
80230;DHT22;69540;42.136;24.742;2023-04-24T00:49:18;22.40;32.00
80230;DHT22;69540;42.136;24.742;2023-04-24T00:51:44;22.40;31.90
80230;DHT22;69540;42.136;24.742;2023-04-24T00:54:12;22.40;31.90
80230;DHT22;69540;42.136;24.742;2023-04-24T00:56:41;22.40;31.90
80230;DHT22;69540;42.136;24.742;2023-04-24T00:59:07;22.40;31.90
80230;DHT22;69540;42.136;24.742;2023-04-24T01:01:33;22.40;32.00
80230;DHT22;69540;42.136;24.742;2023-04-24T01:03:59;22.40;31.90
80230;DHT22;69540;42.136;24.742;2023-04-24T01:06:28;22.40;32.00
80230;DHT22;69540;42.136;24.742;2023-04-24T01:08:57;22.40;32.00
80230;DHT22;69540;42.136;24.742;2023-04-24T01:11:25;22.40;32.00
80230;DHT22;69540;42.136;24.742;2023-04-24T01:13:51;22.40;32.00
80230;DHT22;69540;42.136;24.742;2023-04-24T01:16:17;22.40;31.90
80230;DHT22;69540;42.136;24.742;2023-04-24T01:18:44;22.40;31.90
80230;DHT22;69540;42.136;24.742;2023-04-24T01:21:11;22.40;32.00
80230;DHT22;69540;42.136;24.742;2023-04-24T01:23:38;22.40;32.00
80230;DHT22;69540;42.136;24.742;2023-04-24T01:26:04;22.40;32.00
80230;DHT22;69540;42.136;24.742;2023-04-24T01:28:30;22.40;32.00
80230;DHT22;69540;42.136;24.742;2023-04-24T01:30:56;22.40;31.90
80230;DHT22;69540;42.136;24.742;2023-04-24T01:33:22;22.40;31.90
80230;DHT22;69540;42.136;24.742;2023-04-24T01:35:49;22.40;31.90
80230;DHT22;69540;42.136;24.742;2023-04-24T01:38:14;22.40;31.90
80230;DHT22;69540;42.136;24.742;2023-04-24T01:40:40;22.40;32.00
80230;DHT22;69540;42.136;24.742;2023-04-24T01:43:06;22.40;32.00
80230;DHT22;69540;42.136;24.742;2023-04-24T01:45:32;22.40;32.10
80230;DHT22;69540;42.136;24.742;2023-04-24T01:47:58;22.40;32.00
80230;DHT22;69540;42.136;24.742;2023-04-24T01:50:24;22.40;32.00
80230;DHT22;69540;42.136;24.742;2023-04-24T01:52:50;22.40;32.00
80230;DHT22;69540;42.136;24.742;2023-04-24T01:55:18;22.40;32.00
80230;DHT22;69540;42.136;24.742;2023-04-24T01:57:43;22.30;32.00
80230;DHT22;69540;42.136;24.742;2023-04-24T02:00:09;22.40;32.00
80230;DHT22;69540;42.136;24.742;2023-04-24T02:02:38;22.40;32.00
80230;DHT22;69540;42.136;24.742;2023-04-24T02:05:06;22.40;32.00
80230;DHT22;69540;42.136;24.742;2023-04-24T02:07:32;22.30;32.00
80230;DHT22;69540;42.136;24.742;2023-04-24T02:09:58;22.30;32.00
80230;DHT22;69540;42.136;24.742;2023-04-24T02:12:24;22.30;31.90
80230;DHT22;69540;42.136;24.742;2023-04-24T02:14:49;22.30;32.00
80230;DHT22;69540;42.136;24.742;2023-04-24T02:17:15;22.30;32.00
80230;DHT22;69540;42.136;24.742;2023-04-24T02:19:41;22.30;32.00
80230;DHT22;69540;42.136;24.742;2023-04-24T02:22:07;22.30;31.90
80230;DHT22;69540;42.136;24.742;2023-04-24T02:24:33;22.30;32.00
80230;DHT22;69540;42.136;24.742;2023-04-24T02:26:59;22.30;32.00
80230;DHT22;69540;42.136;24.742;2023-04-24T02:29:25;22.30;32.00
80230;DHT22;69540;42.136;24.742;2023-04-24T02:31:53;22.30;32.00
80230;DHT22;69540;42.136;24.742;2023-04-24T02:34:19;22.30;31.90
80230;DHT22;69540;42.136;24.742;2023-04-24T02:36:45;22.30;32.00
80230;DHT22;69540;42.136;24.742;2023-04-24T02:39:11;22.30;32.00
80230;DHT22;69540;42.136;24.742;2023-04-24T02:41:36;22.30;32.00
80230;DHT22;69540;42.136;24.742;2023-04-24T02:44:02;22.30;31.90
80230;DHT22;69540;42.136;24.742;2023-04-24T02:46:28;22.30;32.00
80230;DHT22;69540;42.136;24.742;2023-04-24T02:48:54;22.30;32.00
80230;DHT22;69540;42.136;24.742;2023-04-24T02:51:19;22.30;32.00
80230;DHT22;69540;42.136;24.742;2023-04-24T02:53:45;22.30;32.00
80230;DHT22;69540;42.136;24.742;2023-04-24T02:56:11;22.30;32.00
80230;DHT22;69540;42.136;24.742;2023-04-24T02:58:40;22.30;31.90
80230;DHT22;69540;42.136;24.742;2023-04-24T03:01:05;22.30;32.00
80230;DHT22;69540;42.136;24.742;2023-04-24T03:03:32;22.30;32.00
80230;DHT22;69540;42.136;24.742;2023-04-24T03:05:57;22.30;32.00
80230;DHT22;69540;42.136;24.742;2023-04-24T03:08:24;22.30;32.00
80230;DHT22;69540;42.136;24.742;2023-04-24T03:10:49;22.30;32.00
80230;DHT22;69540;42.136;24.742;2023-04-24T03:13:16;22.30;32.00
80230;DHT22;69540;42.136;24.742;2023-04-24T03:15:42;22.30;32.00
80230;DHT22;69540;42.136;24.742;2023-04-24T03:18:07;22.30;32.00
80230;DHT22;69540;42.136;24.742;2023-04-24T03:20:33;22.30;32.00
80230;DHT22;69540;42.136;24.742;2023-04-24T03:22:59;22.30;32.00
80230;DHT22;69540;42.136;24.742;2023-04-24T03:25:24;22.30;32.00
80230;DHT22;69540;42.136;24.742;2023-04-24T03:27:51;22.30;32.00
80230;DHT22;69540;42.136;24.742;2023-04-24T03:30:19;22.30;32.00
80230;DHT22;69540;42.136;24.742;2023-04-24T03:32:44;22.30;32.00
80230;DHT22;69540;42.136;24.742;2023-04-24T03:35:10;22.30;32.00
80230;DHT22;69540;42.136;24.742;2023-04-24T03:37:36;22.30;32.00
80230;DHT22;69540;42.136;24.742;2023-04-24T03:40:02;22.30;32.00
80230;DHT22;69540;42.136;24.742;2023-04-24T03:42:28;22.30;32.00
80230;DHT22;69540;42.136;24.742;2023-04-24T03:44:53;22.20;32.00
80230;DHT22;69540;42.136;24.742;2023-04-24T03:47:22;22.30;32.00
80230;DHT22;69540;42.136;24.742;2023-04-24T03:49:47;22.30;32.00
80230;DHT22;69540;42.136;24.742;2023-04-24T03:52:13;22.30;32.00
80230;DHT22;69540;42.136;24.742;2023-04-24T03:54:39;22.30;32.00
80230;DHT22;69540;42.136;24.742;2023-04-24T03:57:04;22.30;31.90
80230;DHT22;69540;42.136;24.742;2023-04-24T03:59:30;22.30;31.80
80230;DHT22;69540;42.136;24.742;2023-04-24T04:01:56;22.40;31.80
80230;DHT22;69540;42.136;24.742;2023-04-24T04:04:22;22.40;31.80
80230;DHT22;69540;42.136;24.742;2023-04-24T04:06:47;22.40;31.80
80230;DHT22;69540;42.136;24.742;2023-04-24T04:09:14;22.40;31.70
80230;DHT22;69540;42.136;24.742;2023-04-24T04:11:40;22.40;32.30
80230;DHT22;69540;42.136;24.742;2023-04-24T04:14:06;22.20;34.20
80230;DHT22;69540;42.136;24.742;2023-04-24T04:16:31;22.10;35.00
80230;DHT22;69540;42.136;24.742;2023-04-24T04:18:57;21.90;35.30
80230;DHT22;69540;42.136;24.742;2023-04-24T04:21:26;21.80;34.20
80230;DHT22;69540;42.136;24.742;2023-04-24T04:23:52;21.70;33.60
80230;DHT22;69540;42.136;24.742;2023-04-24T04:26:18;21.60;33.00
80230;DHT22;69540;42.136;24.742;2023-04-24T04:28:49;21.50;32.70
80230;DHT22;69540;42.136;24.742;2023-04-24T04:31:15;21.40;32.70
80230;DHT22;69540;42.136;24.742;2023-04-24T04:33:41;21.40;32.60
80230;DHT22;69540;42.136;24.742;2023-04-24T04:36:09;21.30;32.50
80230;DHT22;69540;42.136;24.742;2023-04-24T04:38:35;21.20;32.60
80230;DHT22;69540;42.136;24.742;2023-04-24T04:41:02;21.20;32.70
80230;DHT22;69540;42.136;24.742;2023-04-24T04:43:28;21.20;32.70
80230;DHT22;69540;42.136;24.742;2023-04-24T04:45:54;21.10;32.70
80230;DHT22;69540;42.136;24.742;2023-04-24T04:48:21;21.00;32.80
80230;DHT22;69540;42.136;24.742;2023-04-24T04:50:47;21.00;33.00
80230;DHT22;69540;42.136;24.742;2023-04-24T04:53:15;20.90;32.90
80230;DHT22;69540;42.136;24.742;2023-04-24T04:55:41;20.90;33.00
80230;DHT22;69540;42.136;24.742;2023-04-24T04:58:07;20.80;32.90
80230;DHT22;69540;42.136;24.742;2023-04-24T05:00:33;20.70;33.00
80230;DHT22;69540;42.136;24.742;2023-04-24T05:03:01;20.70;33.00
80230;DHT22;69540;42.136;24.742;2023-04-24T05:05:28;20.70;33.00
80230;DHT22;69540;42.136;24.742;2023-04-24T05:07:54;20.70;33.00
80230;DHT22;69540;42.136;24.742;2023-04-24T05:10:19;20.70;33.20
80230;DHT22;69540;42.136;24.742;2023-04-24T05:12:45;20.70;33.40
80230;DHT22;69540;42.136;24.742;2023-04-24T05:15:11;20.70;33.40
80230;DHT22;69540;42.136;24.742;2023-04-24T05:17:37;20.60;33.50
80230;DHT22;69540;42.136;24.742;2023-04-24T05:20:03;20.60;33.70
80230;DHT22;69540;42.136;24.742;2023-04-24T05:22:32;20.60;33.90
80230;DHT22;69540;42.136;24.742;2023-04-24T05:24:58;20.60;34.00
80230;DHT22;69540;42.136;24.742;2023-04-24T05:27:24;20.50;34.00
80230;DHT22;69540;42.136;24.742;2023-04-24T05:29:50;20.50;34.00
80230;DHT22;69540;42.136;24.742;2023-04-24T05:32:16;20.50;34.00
80230;DHT22;69540;42.136;24.742;2023-04-24T05:34:42;20.50;34.10
80230;DHT22;69540;42.136;24.742;2023-04-24T05:37:07;20.50;34.30
80230;DHT22;69540;42.136;24.742;2023-04-24T05:39:38;20.50;34.30
80230;DHT22;69540;42.136;24.742;2023-04-24T05:42:03;20.50;34.40
80230;DHT22;69540;42.136;24.742;2023-04-24T05:44:30;20.40;34.50
80230;DHT22;69540;42.136;24.742;2023-04-24T05:46:56;20.40;34.70
80230;DHT22;69540;42.136;24.742;2023-04-24T05:49:22;20.40;34.70
80230;DHT22;69540;42.136;24.742;2023-04-24T05:51:48;20.50;34.70
80230;DHT22;69540;42.136;24.742;2023-04-24T05:54:13;20.50;34.70
80230;DHT22;69540;42.136;24.742;2023-04-24T05:56:40;20.50;34.70
80230;DHT22;69540;42.136;24.742;2023-04-24T05:59:06;20.50;34.60
80230;DHT22;69540;42.136;24.742;2023-04-24T06:01:32;20.50;34.70
80230;DHT22;69540;42.136;24.742;2023-04-24T06:03:58;20.50;34.70
80230;DHT22;69540;42.136;24.742;2023-04-24T06:06:24;20.50;34.70
80230;DHT22;69540;42.136;24.742;2023-04-24T06:08:50;20.50;34.70
80230;DHT22;69540;42.136;24.742;2023-04-24T06:11:15;20.50;34.80
80230;DHT22;69540;42.136;24.742;2023-04-24T06:13:41;20.50;34.70
80230;DHT22;69540;42.136;24.742;2023-04-24T06:16:07;20.50;34.70
80230;DHT22;69540;42.136;24.742;2023-04-24T06:18:33;20.60;34.80
80230;DHT22;69540;42.136;24.742;2023-04-24T06:20:59;20.70;34.60
80230;DHT22;69540;42.136;24.742;2023-04-24T06:23:24;20.80;34.30
80230;DHT22;69540;42.136;24.742;2023-04-24T06:25:51;20.90;34.20
80230;DHT22;69540;42.136;24.742;2023-04-24T06:28:17;21.00;34.00
80230;DHT22;69540;42.136;24.742;2023-04-24T06:30:42;21.20;33.90
80230;DHT22;69540;42.136;24.742;2023-04-24T06:33:09;21.30;33.70
80230;DHT22;69540;42.136;24.742;2023-04-24T06:35:35;21.40;33.50
80230;DHT22;69540;42.136;24.742;2023-04-24T06:38:01;21.40;33.50
80230;DHT22;69540;42.136;24.742;2023-04-24T06:40:26;21.50;33.20
80230;DHT22;69540;42.136;24.742;2023-04-24T06:42:52;21.50;33.10
80230;DHT22;69540;42.136;24.742;2023-04-24T06:45:18;21.60;33.00
80230;DHT22;69540;42.136;24.742;2023-04-24T06:47:44;21.70;32.90
80230;DHT22;69540;42.136;24.742;2023-04-24T06:50:10;21.70;32.80
80230;DHT22;69540;42.136;24.742;2023-04-24T06:52:36;21.80;32.70
80230;DHT22;69540;42.136;24.742;2023-04-24T06:55:03;21.90;32.70
80230;DHT22;69540;42.136;24.742;2023-04-24T06:57:29;21.90;32.60
80230;DHT22;69540;42.136;24.742;2023-04-24T06:59:55;22.00;32.50
80230;DHT22;69540;42.136;24.742;2023-04-24T07:02:21;22.00;32.40
80230;DHT22;69540;42.136;24.742;2023-04-24T07:04:47;22.00;32.40
80230;DHT22;69540;42.136;24.742;2023-04-24T07:07:13;22.10;32.30
80230;DHT22;69540;42.136;24.742;2023-04-24T07:09:40;22.10;32.20
80230;DHT22;69540;42.136;24.742;2023-04-24T07:12:08;22.10;32.10
80230;DHT22;69540;42.136;24.742;2023-04-24T07:14:33;22.20;32.10
80230;DHT22;69540;42.136;24.742;2023-04-24T07:17:00;22.20;32.00
80230;DHT22;69540;42.136;24.742;2023-04-24T07:19:26;22.20;32.00
80230;DHT22;69540;42.136;24.742;2023-04-24T07:21:52;22.30;32.00
80230;DHT22;69540;42.136;24.742;2023-04-24T07:24:18;22.30;32.00
80230;DHT22;69540;42.136;24.742;2023-04-24T07:26:44;22.30;32.00
80230;DHT22;69540;42.136;24.742;2023-04-24T07:29:12;22.30;31.90
80230;DHT22;69540;42.136;24.742;2023-04-24T07:31:38;22.40;31.90
80230;DHT22;69540;42.136;24.742;2023-04-24T07:34:04;22.40;31.80
80230;DHT22;69540;42.136;24.742;2023-04-24T07:36:29;22.40;31.80
80230;DHT22;69540;42.136;24.742;2023-04-24T07:38:55;22.40;31.70
80230;DHT22;69540;42.136;24.742;2023-04-24T07:41:24;22.50;31.70
80230;DHT22;69540;42.136;24.742;2023-04-24T07:43:49;22.50;31.70
80230;DHT22;69540;42.136;24.742;2023-04-24T07:46:15;22.50;31.50
80230;DHT22;69540;42.136;24.742;2023-04-24T07:48:41;22.50;31.60
80230;DHT22;69540;42.136;24.742;2023-04-24T07:51:07;22.50;31.50
80230;DHT22;69540;42.136;24.742;2023-04-24T07:53:35;22.60;31.50
80230;DHT22;69540;42.136;24.742;2023-04-24T07:56:01;22.60;31.50
80230;DHT22;69540;42.136;24.742;2023-04-24T07:58:26;22.60;31.40
80230;DHT22;69540;42.136;24.742;2023-04-24T08:00:52;22.60;31.40
80230;DHT22;69540;42.136;24.742;2023-04-24T08:03:18;22.60;31.40
80230;DHT22;69540;42.136;24.742;2023-04-24T08:05:45;22.60;31.40
80230;DHT22;69540;42.136;24.742;2023-04-24T08:08:11;22.60;31.40
80230;DHT22;69540;42.136;24.742;2023-04-24T08:10:37;22.60;31.40
80230;DHT22;69540;42.136;24.742;2023-04-24T08:13:05;22.70;31.40
80230;DHT22;69540;42.136;24.742;2023-04-24T08:15:31;22.70;31.30
80230;DHT22;69540;42.136;24.742;2023-04-24T08:17:57;22.70;31.30
80230;DHT22;69540;42.136;24.742;2023-04-24T08:20:22;22.70;31.30
80230;DHT22;69540;42.136;24.742;2023-04-24T08:22:48;22.70;31.30
80230;DHT22;69540;42.136;24.742;2023-04-24T08:25:14;22.70;31.20
80230;DHT22;69540;42.136;24.742;2023-04-24T08:27:40;22.70;31.30
80230;DHT22;69540;42.136;24.742;2023-04-24T08:30:06;22.70;31.20
80230;DHT22;69540;42.136;24.742;2023-04-24T08:32:32;22.70;31.30
80230;DHT22;69540;42.136;24.742;2023-04-24T08:34:59;22.70;31.40
80230;DHT22;69540;42.136;24.742;2023-04-24T08:37:26;22.70;31.50
80230;DHT22;69540;42.136;24.742;2023-04-24T11:32:54;23.70;36.70
80230;DHT22;69540;42.136;24.742;2023-04-24T11:35:27;23.80;37.70
80230;DHT22;69540;42.136;24.742;2023-04-24T11:38:01;23.80;37.50
80230;DHT22;69540;42.136;24.742;2023-04-24T11:40:28;23.90;37.60
80230;DHT22;69540;42.136;24.742;2023-04-24T11:42:54;23.80;37.60
80230;DHT22;69540;42.136;24.742;2023-04-24T11:45:53;23.80;37.50
80230;DHT22;69540;42.136;24.742;2023-04-24T11:48:45;23.90;37.20
80230;DHT22;69540;42.136;24.742;2023-04-24T11:51:12;23.80;37.10
80230;DHT22;69540;42.136;24.742;2023-04-24T11:53:39;23.80;37.10
80230;DHT22;69540;42.136;24.742;2023-04-24T11:56:25;23.80;37.10
80230;DHT22;69540;42.136;24.742;2023-04-24T11:58:58;23.80;36.90
80230;DHT22;69540;42.136;24.742;2023-04-24T12:01:24;23.90;36.60
80230;DHT22;69540;42.136;24.742;2023-04-24T12:03:51;23.90;36.70
80230;DHT22;69540;42.136;24.742;2023-04-24T12:06:24;23.90;36.90
80230;DHT22;69540;42.136;24.742;2023-04-24T12:08:52;23.90;38.10
80230;DHT22;69540;42.136;24.742;2023-04-24T12:11:20;23.80;37.00
80230;DHT22;69540;42.136;24.742;2023-04-24T12:13:58;23.80;37.10
80230;DHT22;69540;42.136;24.742;2023-04-24T12:16:34;23.80;37.20
80230;DHT22;69540;42.136;24.742;2023-04-24T12:19:05;23.80;37.40
80230;DHT22;69540;42.136;24.742;2023-04-24T12:21:31;23.70;37.40
80230;DHT22;69540;42.136;24.742;2023-04-24T12:24:28;23.70;37.40
80230;DHT22;69540;42.136;24.742;2023-04-24T12:27:01;23.70;37.50
80230;DHT22;69540;42.136;24.742;2023-04-24T12:29:48;23.80;37.50
80230;DHT22;69540;42.136;24.742;2023-04-24T12:32:16;23.70;37.50
80230;DHT22;69540;42.136;24.742;2023-04-24T12:34:43;23.80;37.60
80230;DHT22;69540;42.136;24.742;2023-04-24T12:37:12;23.70;37.60
80230;DHT22;69540;42.136;24.742;2023-04-24T12:39:37;23.70;37.70
80230;DHT22;69540;42.136;24.742;2023-04-24T12:42:03;23.70;37.70
80230;DHT22;69540;42.136;24.742;2023-04-24T12:44:32;23.80;37.70
80230;DHT22;69540;42.136;24.742;2023-04-24T12:47:05;23.80;37.70
80230;DHT22;69540;42.136;24.742;2023-04-24T12:49:31;23.80;37.70
80230;DHT22;69540;42.136;24.742;2023-04-24T12:51:59;23.80;37.80
80230;DHT22;69540;42.136;24.742;2023-04-24T12:54:25;23.80;38.40
80230;DHT22;69540;42.136;24.742;2023-04-24T12:56:51;23.80;37.70
80230;DHT22;69540;42.136;24.742;2023-04-24T12:59:16;23.90;37.70
80230;DHT22;69540;42.136;24.742;2023-04-24T13:01:42;23.90;37.40
80230;DHT22;69540;42.136;24.742;2023-04-24T13:04:07;23.90;37.40
80230;DHT22;69540;42.136;24.742;2023-04-24T13:06:33;24.00;37.40
80230;DHT22;69540;42.136;24.742;2023-04-24T13:08:59;24.00;37.20
80230;DHT22;69540;42.136;24.742;2023-04-24T13:11:25;24.10;37.20
80230;DHT22;69540;42.136;24.742;2023-04-24T13:13:50;24.10;37.30
80230;DHT22;69540;42.136;24.742;2023-04-24T13:16:16;24.10;37.40
80230;DHT22;69540;42.136;24.742;2023-04-24T13:18:42;24.00;37.50
80230;DHT22;69540;42.136;24.742;2023-04-24T13:21:07;24.00;37.50
80230;DHT22;69540;42.136;24.742;2023-04-24T13:23:33;24.10;37.50
80230;DHT22;69540;42.136;24.742;2023-04-24T13:26:00;24.10;37.60
80230;DHT22;69540;42.136;24.742;2023-04-24T13:28:29;24.00;37.70
80230;DHT22;69540;42.136;24.742;2023-04-24T13:30:58;24.10;37.80
80230;DHT22;69540;42.136;24.742;2023-04-24T13:33:24;24.00;37.70
80230;DHT22;69540;42.136;24.742;2023-04-24T13:35:50;24.00;37.70
80230;DHT22;69540;42.136;24.742;2023-04-24T13:38:15;24.10;38.00
80230;DHT22;69540;42.136;24.742;2023-04-24T13:40:41;24.10;37.90
80230;DHT22;69540;42.136;24.742;2023-04-24T13:43:07;24.20;37.80
80230;DHT22;69540;42.136;24.742;2023-04-24T13:45:35;24.20;37.80
80230;DHT22;69540;42.136;24.742;2023-04-24T13:48:06;24.20;37.80
80230;DHT22;69540;42.136;24.742;2023-04-24T13:51:13;24.20;37.80
80230;DHT22;69540;42.136;24.742;2023-04-24T13:53:39;24.20;37.60
80230;DHT22;69540;42.136;24.742;2023-04-24T13:56:05;24.10;37.60
80230;DHT22;69540;42.136;24.742;2023-04-24T13:58:39;24.20;37.60
80230;DHT22;69540;42.136;24.742;2023-04-24T14:01:08;24.20;37.60
80230;DHT22;69540;42.136;24.742;2023-04-24T14:03:34;24.20;37.60
80230;DHT22;69540;42.136;24.742;2023-04-24T14:05:59;24.20;37.80
80230;DHT22;69540;42.136;24.742;2023-04-24T14:08:25;24.20;37.70
80230;DHT22;69540;42.136;24.742;2023-04-24T14:10:55;24.20;37.70
80230;DHT22;69540;42.136;24.742;2023-04-24T14:13:29;24.20;37.70
80230;DHT22;69540;42.136;24.742;2023-04-24T14:15:54;24.20;37.90
80230;DHT22;69540;42.136;24.742;2023-04-24T14:18:23;24.20;37.80
80230;DHT22;69540;42.136;24.742;2023-04-24T14:20:49;24.20;38.00
80230;DHT22;69540;42.136;24.742;2023-04-24T14:23:15;24.10;38.10
80230;DHT22;69540;42.136;24.742;2023-04-24T14:25:43;24.20;38.10
80230;DHT22;69540;42.136;24.742;2023-04-24T14:28:21;24.20;38.10
80230;DHT22;69540;42.136;24.742;2023-04-24T14:30:47;24.30;37.80
80230;DHT22;69540;42.136;24.742;2023-04-24T14:33:19;24.30;37.70
80230;DHT22;69540;42.136;24.742;2023-04-24T14:35:48;24.30;37.80
80230;DHT22;69540;42.136;24.742;2023-04-24T14:38:14;24.20;37.70
80230;DHT22;69540;42.136;24.742;2023-04-24T14:40:51;24.20;37.60
80230;DHT22;69540;42.136;24.742;2023-04-24T14:43:49;24.20;37.70
80230;DHT22;69540;42.136;24.742;2023-04-24T14:49:51;24.20;37.90
80230;DHT22;69540;42.136;24.742;2023-04-24T14:52:22;24.10;38.00
80230;DHT22;69540;42.136;24.742;2023-04-24T14:58:32;24.10;38.00
80230;DHT22;69540;42.136;24.742;2023-04-24T15:01:16;24.10;37.90
80230;DHT22;69540;42.136;24.742;2023-04-24T15:03:41;24.10;37.90
80230;DHT22;69540;42.136;24.742;2023-04-24T15:06:07;24.10;37.80
80230;DHT22;69540;42.136;24.742;2023-04-24T15:11:51;24.20;37.90
80230;DHT22;69540;42.136;24.742;2023-04-24T15:14:43;24.10;37.80
80230;DHT22;69540;42.136;24.742;2023-04-24T15:17:09;24.10;38.00
80230;DHT22;69540;42.136;24.742;2023-04-24T15:19:35;24.10;37.90
80230;DHT22;69540;42.136;24.742;2023-04-24T15:22:00;24.20;37.90
80230;DHT22;69540;42.136;24.742;2023-04-24T15:24:26;24.20;37.70
80230;DHT22;69540;42.136;24.742;2023-04-24T15:26:51;24.20;37.60
80230;DHT22;69540;42.136;24.742;2023-04-24T15:29:18;24.20;37.60
80230;DHT22;69540;42.136;24.742;2023-04-24T15:31:44;24.20;37.50
80230;DHT22;69540;42.136;24.742;2023-04-24T15:34:09;24.20;37.20
80230;DHT22;69540;42.136;24.742;2023-04-24T15:36:35;24.20;37.40
80230;DHT22;69540;42.136;24.742;2023-04-24T15:39:02;24.10;37.40
80230;DHT22;69540;42.136;24.742;2023-04-24T15:41:28;24.10;37.30
80230;DHT22;69540;42.136;24.742;2023-04-24T15:43:53;24.10;37.30
80230;DHT22;69540;42.136;24.742;2023-04-24T15:46:19;24.10;37.10
80230;DHT22;69540;42.136;24.742;2023-04-24T15:48:45;24.10;37.30
80230;DHT22;69540;42.136;24.742;2023-04-24T15:51:11;24.10;37.20
80230;DHT22;69540;42.136;24.742;2023-04-24T15:53:36;24.10;37.30
80230;DHT22;69540;42.136;24.742;2023-04-24T15:56:02;24.10;37.20
80230;DHT22;69540;42.136;24.742;2023-04-24T15:58:28;24.20;37.10
80230;DHT22;69540;42.136;24.742;2023-04-24T16:00:54;24.20;37.00
80230;DHT22;69540;42.136;24.742;2023-04-24T16:03:20;24.20;36.70
80230;DHT22;69540;42.136;24.742;2023-04-24T16:05:46;24.20;36.70
80230;DHT22;69540;42.136;24.742;2023-04-24T16:08:12;24.20;36.70
80230;DHT22;69540;42.136;24.742;2023-04-24T16:10:40;24.20;36.70
80230;DHT22;69540;42.136;24.742;2023-04-24T16:13:06;24.20;36.50
80230;DHT22;69540;42.136;24.742;2023-04-24T16:15:33;24.20;36.60
80230;DHT22;69540;42.136;24.742;2023-04-24T16:18:01;24.20;36.50
80230;DHT22;69540;42.136;24.742;2023-04-24T16:20:26;24.40;36.50
80230;DHT22;69540;42.136;24.742;2023-04-24T16:22:52;24.40;36.30
80230;DHT22;69540;42.136;24.742;2023-04-24T16:25:18;24.40;36.30
80230;DHT22;69540;42.136;24.742;2023-04-24T16:27:44;24.40;36.30
80230;DHT22;69540;42.136;24.742;2023-04-24T16:33:37;24.40;36.30
80230;DHT22;69540;42.136;24.742;2023-04-24T16:36:10;24.40;36.40
80230;DHT22;69540;42.136;24.742;2023-04-24T16:38:38;24.40;36.40
80230;DHT22;69540;42.136;24.742;2023-04-24T16:41:03;24.40;36.30
80230;DHT22;69540;42.136;24.742;2023-04-24T16:43:29;24.30;36.30
80230;DHT22;69540;42.136;24.742;2023-04-24T16:45:55;24.30;36.30
80230;DHT22;69540;42.136;24.742;2023-04-24T16:48:21;24.30;36.30
80230;DHT22;69540;42.136;24.742;2023-04-24T16:50:47;24.30;36.40
80230;DHT22;69540;42.136;24.742;2023-04-24T16:53:13;24.20;36.50
80230;DHT22;69540;42.136;24.742;2023-04-24T16:55:39;24.20;36.60
80230;DHT22;69540;42.136;24.742;2023-04-24T16:58:05;24.20;36.50
80230;DHT22;69540;42.136;24.742;2023-04-24T17:00:30;24.20;36.50
80230;DHT22;69540;42.136;24.742;2023-04-24T17:02:56;24.20;36.50
80230;DHT22;69540;42.136;24.742;2023-04-24T17:05:22;24.20;36.50
80230;DHT22;69540;42.136;24.742;2023-04-24T17:07:51;24.20;36.60
80230;DHT22;69540;42.136;24.742;2023-04-24T17:10:17;24.10;36.70
80230;DHT22;69540;42.136;24.742;2023-04-24T17:12:43;24.20;36.70
80230;DHT22;69540;42.136;24.742;2023-04-24T17:15:09;24.20;36.40
80230;DHT22;69540;42.136;24.742;2023-04-24T17:17:35;24.30;36.30
80230;DHT22;69540;42.136;24.742;2023-04-24T17:20:01;24.30;36.20
80230;DHT22;69540;42.136;24.742;2023-04-24T17:22:27;24.20;36.20
80230;DHT22;69540;42.136;24.742;2023-04-24T17:24:53;24.20;36.10
80230;DHT22;69540;42.136;24.742;2023-04-24T17:27:19;24.20;36.00
80230;DHT22;69540;42.136;24.742;2023-04-24T17:29:45;24.30;36.00
80230;DHT22;69540;42.136;24.742;2023-04-24T17:32:11;24.30;35.90
80230;DHT22;69540;42.136;24.742;2023-04-24T17:34:36;24.30;35.80
80230;DHT22;69540;42.136;24.742;2023-04-24T17:37:03;24.30;35.80
80230;DHT22;69540;42.136;24.742;2023-04-24T17:39:29;24.30;35.80
80230;DHT22;69540;42.136;24.742;2023-04-24T17:41:55;24.30;35.70
80230;DHT22;69540;42.136;24.742;2023-04-24T17:44:21;24.30;35.70
80230;DHT22;69540;42.136;24.742;2023-04-24T17:46:46;24.30;35.70
80230;DHT22;69540;42.136;24.742;2023-04-24T17:49:12;24.40;35.70
80230;DHT22;69540;42.136;24.742;2023-04-24T17:51:38;24.40;35.60
80230;DHT22;69540;42.136;24.742;2023-04-24T17:54:03;24.40;35.60
80230;DHT22;69540;42.136;24.742;2023-04-24T17:56:29;24.30;35.60
80230;DHT22;69540;42.136;24.742;2023-04-24T17:58:55;24.40;35.60
80230;DHT22;69540;42.136;24.742;2023-04-24T18:01:22;24.30;35.60
80230;DHT22;69540;42.136;24.742;2023-04-24T18:03:48;24.30;35.60
80230;DHT22;69540;42.136;24.742;2023-04-24T18:06:14;24.30;35.60
80230;DHT22;69540;42.136;24.742;2023-04-24T18:08:42;24.30;35.60
80230;DHT22;69540;42.136;24.742;2023-04-24T18:11:08;24.30;35.60
80230;DHT22;69540;42.136;24.742;2023-04-24T18:13:33;24.30;35.60
80230;DHT22;69540;42.136;24.742;2023-04-24T18:15:59;24.30;35.60
80230;DHT22;69540;42.136;24.742;2023-04-24T18:18:25;24.30;35.50
80230;DHT22;69540;42.136;24.742;2023-04-24T18:20:51;24.30;35.50